• Join FlightAware (Why Join?)
  • Login
  • US Flag 
04:43PM EST


 

Airport Tracker/Info


-or-


 

Live Flight TrackerFlight Track Log ✈ N6319G ✈ 18-May-2013 ✈ KIRK - KDBQ

Flight Track Log - Related Links

Times and Time Zones

All times are in EDT time to prevent confusion due to time zone crossing. See the N6319G flight status page for this flight to view local times or setup timezone preferences in your user account.

Time Position Orientation Groundspeed Altitude Reporting Facility
EDT Latitude Longitude Course Direction KTS MPH feet Rate Location/Type
06:55PM 40.0842 -92.5442 20° North 53 61 1,600  Level Kansas City Center
06:56PM 40.1047 -92.5344 20° North 105 121 2,300 720 Climbing Kansas City Center
06:57PM 40.1264 -92.5164 33° Northeast 87 100 3,100 720 Climbing Kansas City Center
06:59PM 40.1472 -92.5014 29° Northeast 85 98 3,800 600 Climbing Kansas City Center
07:00PM 40.1678 -92.4853 31° Northeast 86 99 4,400 540 Climbing Kansas City Center
07:01PM 40.1894 -92.4683 31° Northeast 89 102 5,000 240 Climbing Kansas City Center
07:02PM 40.2186 -92.4458 30° Northeast 109 125 5,000  Level Kansas City Center
07:03PM 40.2561 -92.4178 30° Northeast 125 144 5,000  Level Kansas City Center
07:04PM 40.2856 -92.3939 32° Northeast 127 146 5,000  Level Kansas City Center
07:05PM 40.3164 -92.3706 30° Northeast 128 147 5,000  Level Kansas City Center
07:06PM 40.3475 -92.3464 31° Northeast 130 150 5,000  Level Kansas City Center
07:07PM 40.3781 -92.3231 30° Northeast 129 148 5,000  Level Kansas City Center
07:08PM 40.4150 -92.2942 31° Northeast 129 148 5,000  Level Kansas City Center
07:09PM 40.4458 -92.2700 31° Northeast 130 150 5,000  Level Kansas City Center
07:10PM 40.4758 -92.2467 31° Northeast 129 148 5,000  Level Kansas City Center
07:11PM 40.5069 -92.2219 31° Northeast 130 150 5,000  Level Kansas City Center
07:12PM 40.5378 -92.1992 29° Northeast 129 148 5,000  Level Kansas City Center
07:13PM 40.5689 -92.1758 30° Northeast 130 150 5,100  Climbing Kansas City Center
07:14PM 40.6058 -92.1461 31° Northeast 130 150 5,000 -60 Descending Kansas City Center
07:15PM 40.6306 -92.1261 32° Northeast 130 150 5,000  Level Chicago Center
07:16PM 40.6617 -92.1022 30° Northeast 131 151 5,000  Level Chicago Center
07:17PM 40.6986 -92.0736 30° Northeast 130 150 5,000  Level Chicago Center
07:18PM 40.7297 -92.0489 31° Northeast 130 150 5,000  Level Chicago Center
07:19PM 40.7608 -92.0253 30° Northeast 130 150 5,100  Climbing Chicago Center
07:20PM 40.7917 -92.0019 30° Northeast 129 148 5,000 -60 Descending Chicago Center
07:21PM 40.8214 -91.9778 32° Northeast 128 147 5,000  Level Chicago Center
07:22PM 40.8514 -91.9547 30° Northeast 127 146 5,100  Climbing Chicago Center
07:23PM 40.8811 -91.9308 31° Northeast 127 146 5,100 -60 Level Chicago Center
07:24PM 40.9178 -91.9008 32° Northeast 128 147 5,000  Descending Chicago Center
07:25PM 40.9486 -91.8783 29° Northeast 128 147 5,100  Climbing Chicago Center
07:26PM 40.9783 -91.8533 32° Northeast 128 147 5,100 -60 Level Chicago Center
07:27PM 41.0086 -91.8286 32° Northeast 128 147 5,000  Descending Chicago Center
07:28PM 41.0411 -91.8056 28° Northeast 131 151 5,100  Climbing Chicago Center
07:29PM 41.0722 -91.7806 31° Northeast 131 151 5,000 -60 Descending Chicago Center
07:30PM 41.1031 -91.7561 31° Northeast 131 151 5,000  Level Chicago Center
07:31PM 41.1400 -91.7267 31° Northeast 131 151 5,000  Level Chicago Center
07:32PM 41.1711 -91.7019 31° Northeast 130 150 5,100  Climbing Chicago Center
07:33PM 41.2050 -91.6803 26° Northeast 134 154 5,100 -60 Level Chicago Center
07:34PM 41.2378 -91.6531 32° Northeast 132 152 5,000 -60 Descending Chicago Center
07:35PM 41.2694 -91.6281 31° Northeast 128 147 5,000  Level Chicago Center
07:36PM 41.2989 -91.6047 31° Northeast 126 145 5,000  Level Chicago Center
07:37PM 41.3303 -91.5781 33° Northeast 132 152 5,000  Level Chicago Center
07:38PM 41.3619 -91.5539 30° Northeast 132 152 5,000  Level Chicago Center
07:39PM 41.3919 -91.5292 32° Northeast 130 150 5,000  Level Chicago Center
07:40PM 41.4222 -91.5033 33° Northeast 130 150 5,000  Level Chicago Center
07:41PM 41.4592 -91.4747 30° Northeast 128 147 5,000  Level Chicago Center
07:42PM 41.4897 -91.4506 31° Northeast 129 148 5,100  Climbing Chicago Center
07:43PM 41.5200 -91.4272 30° Northeast 128 147 5,100 -60 Level Chicago Center
07:44PM 41.5508 -91.4028 31° Northeast 129 148 5,000  Descending Chicago Center
07:46PM 41.5808 -91.3792 30° Northeast 127 146 5,100  Climbing Chicago Center
07:47PM 41.6117 -91.3542 31° Northeast 130 150 5,100 -60 Level Chicago Center
07:48PM 41.6492 -91.3236 31° Northeast 132 152 5,000 -60 Descending Chicago Center
07:49PM 41.6789 -91.3014 29° Northeast 128 147 5,000  Level Chicago Center
07:50PM 41.7103 -91.2764 31° Northeast 130 150 5,000  Level Chicago Center
07:51PM 41.7408 -91.2506 32° Northeast 131 151 5,000  Level Chicago Center
07:52PM 41.7717 -91.2256 31° Northeast 131 151 5,100  Climbing Chicago Center
07:53PM 41.8014 -91.2008 32° Northeast 129 148 5,000 -60 Descending Chicago Center
07:54PM 41.8314 -91.1775 30° Northeast 127 146 5,000  Level Chicago Center
07:55PM 41.8686 -91.1467 32° Northeast 130 150 5,000  Level Chicago Center
07:56PM 41.8983 -91.1217 32° Northeast 129 148 5,000  Level Chicago Center
07:57PM 41.9292 -91.0967 31° Northeast 130 150 5,000  Level Chicago Center
07:58PM 41.9583 -91.0714 33° Northeast 129 148 5,000  Level Chicago Center
07:59PM 41.9908 -91.0481 28° Northeast 131 151 5,000  Level Chicago Center
08:00PM 42.0211 -91.0231 32° Northeast 130 150 5,000  Level Chicago Center
08:01PM 42.0558 -90.9931 33° Northeast 127 146 5,000 -300 Level Chicago Center
08:02PM 42.0872 -90.9692 29° Northeast 128 147 4,500 -900 Descending Chicago Center
08:03PM 42.1206 -90.9422 31° Northeast 133 153 3,200 -780 Descending Chicago Center
08:04PM 42.1514 -90.9147 33° Northeast 135 155 3,000 -120 Descending Chicago Center
08:05PM 42.1800 -90.8906 32° Northeast 131 151 3,000  Level Chicago Center